Time;durP1;ratioP1;P1;durP2;ratioP2;P2;SDS_P1;SDS_P2;PMS_P1;PMS_P2;Temp;Humidity;BMP_temperature;BMP_pressure;BME280_temperature;BME280_humidity;BME280_pressure;Samples;Min_cycle;Max_cycle;Signal;HPM_P1;HPM_P2
2023/03/21 00:00:36;;;;;;;18.30;10.55;;;10.20;99.90;;;;;;5110217;28;20031;-41
2023/03/21 00:03:02;;;;;;;17.77;10.05;;;10.20;99.90;;;;;;5114070;28;20073;-42
2023/03/21 00:05:28;;;;;;;16.83;10.20;;;10.20;99.90;;;;;;5114021;28;20047;-40
2023/03/21 00:07:54;;;;;;;21.88;9.80;;;10.20;99.90;;;;;;5113112;28;20408;-41
2023/03/21 00:10:19;;;;;;;13.15;8.38;;;10.30;99.90;;;;;;5106319;28;20077;-43
2023/03/21 00:12:49;;;;;;;18.02;10.32;;;10.20;99.90;;;;;;5101801;28;20089;-38
2023/03/21 00:15:17;;;;;;;19.25;9.40;;;10.20;99.90;;;;;;5109631;28;20106;-41
2023/03/21 00:17:43;;;;;;;17.25;9.43;;;10.20;99.90;;;;;;5098960;28;20043;-41
2023/03/21 00:20:13;;;;;;;23.83;9.52;;;10.20;99.90;;;;;;5107042;28;20024;-42
2023/03/21 00:22:40;;;;;;;24.75;9.65;;;10.20;99.90;;;;;;5106747;28;20043;-41
2023/03/21 00:25:07;;;;;;;15.80;8.88;;;10.20;99.90;;;;;;5096678;28;20028;-41
2023/03/21 00:27:33;;;;;;;14.98;8.75;;;10.20;99.90;;;;;;5106654;28;20020;-42
2023/03/21 00:29:58;;;;;;;17.67;9.45;;;10.20;99.90;;;;;;5095512;28;20035;-41
2023/03/21 00:32:24;;;;;;;24.58;10.05;;;10.20;99.90;;;;;;5096094;28;20465;-36
2023/03/21 00:34:51;;;;;;;18.95;9.27;;;10.20;99.90;;;;;;5105308;28;20053;-40
2023/03/21 00:37:17;;;;;;;20.05;9.60;;;10.30;99.90;;;;;;5111111;28;20024;-41
2023/03/21 00:39:47;;;;;;;20.35;9.05;;;10.20;99.90;;;;;;5109259;28;20026;-41
2023/03/21 00:42:12;;;;;;;14.73;8.93;;;10.30;99.90;;;;;;5106637;28;20031;-41
2023/03/21 00:44:39;;;;;;;17.17;9.68;;;10.20;99.90;;;;;;5113433;28;20020;-45
2023/03/21 00:47:05;;;;;;;16.45;9.40;;;10.20;99.90;;;;;;5113212;28;20503;-42
2023/03/21 00:49:32;;;;;;;18.00;9.10;;;10.20;99.90;;;;;;5097846;28;20437;-41
2023/03/21 00:52:02;;;;;;;16.00;9.57;;;10.20;99.90;;;;;;5092627;28;20050;-41
2023/03/21 00:54:28;;;;;;;14.85;9.60;;;10.20;99.90;;;;;;5108466;28;20096;-46
2023/03/21 00:56:54;;;;;;;17.15;9.23;;;10.20;99.90;;;;;;5104522;28;20488;-41
2023/03/21 00:59:20;;;;;;;14.15;8.80;;;10.20;99.90;;;;;;5103260;28;20119;-40
2023/03/21 01:01:45;;;;;;;17.15;9.73;;;10.20;99.90;;;;;;5093819;28;20028;-41
2023/03/21 01:04:13;;;;;;;16.73;9.25;;;10.20;99.90;;;;;;5092845;28;20032;-41
2023/03/21 01:06:40;;;;;;;14.88;9.70;;;10.20;99.90;;;;;;5097043;28;20027;-43
2023/03/21 01:09:11;;;;;;;15.75;10.00;;;10.10;99.90;;;;;;5111765;28;20472;-41
2023/03/21 01:11:37;;;;;;;16.27;9.38;;;10.10;99.90;;;;;;5094778;28;20024;-43
2023/03/21 01:14:03;;;;;;;16.92;9.98;;;10.10;99.90;;;;;;5091835;28;20020;-41
2023/03/21 01:16:29;;;;;;;16.13;9.55;;;10.10;99.90;;;;;;5092044;28;20031;-44
2023/03/21 01:18:55;;;;;;;24.77;10.75;;;10.10;99.90;;;;;;5092636;28;20052;-37
2023/03/21 01:21:20;;;;;;;21.83;10.07;;;10.10;99.90;;;;;;5111582;28;20526;-43
2023/03/21 01:23:46;;;;;;;19.67;11.13;;;10.10;99.90;;;;;;5095415;28;20039;-43
2023/03/21 01:26:13;;;;;;;23.60;10.75;;;10.10;99.90;;;;;;5092259;28;20028;-41
2023/03/21 01:28:41;;;;;;;20.55;10.95;;;10.10;99.90;;;;;;5092703;28;20055;-44
2023/03/21 01:31:07;;;;;;;22.60;11.15;;;10.10;99.90;;;;;;5108337;28;20102;-41
2023/03/21 01:33:33;;;;;;;21.35;10.85;;;10.10;99.90;;;;;;5092692;28;20056;-42
2023/03/21 01:36:00;;;;;;;26.77;12.73;;;10.10;99.90;;;;;;5102304;28;20039;-44
2023/03/21 01:38:26;;;;;;;29.52;12.57;;;10.10;99.90;;;;;;5099124;28;20029;-39
2023/03/21 01:40:52;;;;;;;28.45;12.73;;;10.10;99.90;;;;;;5108342;28;20592;-41
2023/03/21 01:43:22;;;;;;;24.67;12.48;;;10.00;99.90;;;;;;5093954;28;20048;-32
2023/03/21 01:46:06;;;;;;;28.45;12.52;;;10.00;99.90;;;;;;5109981;28;20043;-39
2023/03/21 01:48:35;;;;;;;24.55;13.50;;;10.00;99.90;;;;;;5091806;28;20032;-36
2023/03/21 01:51:02;;;;;;;32.50;13.43;;;10.00;99.90;;;;;;5103813;28;20028;-39
2023/03/21 01:53:32;;;;;;;26.58;13.68;;;10.10;99.90;;;;;;5100443;28;20102;-37
2023/03/21 01:56:05;;;;;;;23.48;12.38;;;10.00;99.90;;;;;;5097125;28;20061;-35
2023/03/21 01:58:32;;;;;;;31.98;12.95;;;10.00;99.90;;;;;;5092391;28;20036;-43
2023/03/21 02:00:58;;;;;;;31.35;12.27;;;10.00;99.90;;;;;;5102749;28;20040;-40
2023/03/21 02:03:28;;;;;;;25.73;12.48;;;10.00;99.90;;;;;;5101218;28;20031;-39
2023/03/21 02:06:14;;;;;;;28.23;12.95;;;10.00;99.90;;;;;;5091757;28;20107;-43
2023/03/21 02:08:39;;;;;;;26.00;12.27;;;10.00;99.90;;;;;;5095854;28;20023;-43
2023/03/21 02:11:08;;;;;;;29.73;12.40;;;10.00;99.90;;;;;;5095930;28;20107;-43
2023/03/21 02:13:35;;;;;;;25.55;13.52;;;10.10;99.90;;;;;;5101563;28;20027;-40
2023/03/21 02:16:28;;;;;;;29.65;12.73;;;10.00;99.90;;;;;;5097100;28;20450;-42
2023/03/21 02:19:12;;;;;;;31.08;12.25;;;10.00;99.90;;;;;;5095960;28;20056;-41
2023/03/21 02:21:43;;;;;;;33.80;11.77;;;10.00;99.90;;;;;;5110576;28;20069;-41
2023/03/21 02:24:23;;;;;;;33.40;13.25;;;10.00;99.90;;;;;;5113089;28;20076;-41
2023/03/21 02:27:12;;;;;;;25.40;11.77;;;10.00;99.90;;;;;;5112898;28;20073;-40
2023/03/21 02:30:18;;;;;;;26.17;11.95;;;10.00;99.90;;;;;;5110447;28;20027;-44
2023/03/21 02:33:28;;;;;;;22.10;11.37;;;10.00;99.90;;;;;;5105772;28;20107;-40
2023/03/21 02:36:16;;;;;;;20.50;10.70;;;10.00;99.90;;;;;;5052840;28;20547;-41
2023/03/21 02:38:53;;;;;;;34.03;11.25;;;10.00;99.90;;;;;;5070240;28;20036;-42
2023/03/21 02:41:31;;;;;;;26.17;11.47;;;10.10;99.90;;;;;;5088342;28;20523;-45
2023/03/21 02:44:06;;;;;;;;;;;10.10;99.90;;;;;;5094815;28;20346;-40
2023/03/21 02:46:36;;;;;;;26.17;10.88;;;10.00;99.90;;;;;;5094971;28;20366;-43
2023/03/21 02:49:21;;;;;;;20.77;10.75;;;10.00;99.90;;;;;;5111437;28;20069;-40
2023/03/21 02:51:48;;;;;;;23.98;10.95;;;10.00;99.90;;;;;;5114150;28;20094;-44
2023/03/21 02:54:18;;;;;;;28.10;11.48;;;10.00;99.90;;;;;;5114053;28;20028;-42
2023/03/21 02:56:46;;;;;;;24.45;10.02;;;10.00;99.90;;;;;;5108262;28;20020;-43
2023/03/21 02:59:13;;;;;;;25.55;10.77;;;10.00;99.90;;;;;;5094364;28;20042;-40
2023/03/21 03:01:39;;;;;;;21.80;10.47;;;10.00;99.90;;;;;;5094453;28;20113;-38
2023/03/21 03:04:20;;;;;;;27.17;10.07;;;10.00;99.90;;;;;;5098055;28;20483;-40
2023/03/21 03:06:59;;;;;;;20.95;10.40;;;10.00;99.90;;;;;;5106595;28;20113;-39
2023/03/21 03:10:03;;;;;;;23.73;10.27;;;9.90;99.90;;;;;;5106031;28;20502;-41
2023/03/21 03:12:44;;;;;;;19.80;9.75;;;9.90;99.90;;;;;;5105406;28;20031;-41
2023/03/21 03:15:28;;;;;;;26.70;11.70;;;9.90;99.90;;;;;;5096692;28;20038;-41
2023/03/21 03:18:28;;;;;;;26.33;10.13;;;9.90;99.90;;;;;;5095779;28;20031;-37
2023/03/21 03:21:01;;;;;;;22.73;9.73;;;9.90;99.90;;;;;;5101071;28;20032;-48
2023/03/21 03:23:43;;;;;;;23.33;9.45;;;9.90;99.90;;;;;;5095161;28;20021;-48
2023/03/21 03:26:22;;;;;;;21.83;9.48;;;9.90;99.90;;;;;;5094652;28;20031;-48
2023/03/21 03:28:52;;;;;;;27.02;9.65;;;9.90;99.90;;;;;;5105569;28;20030;-34
2023/03/21 03:31:26;;;;;;;18.20;10.23;;;9.90;99.90;;;;;;5094273;28;20043;-36
2023/03/21 03:33:55;;;;;;;21.50;10.75;;;9.80;99.90;;;;;;5092897;28;20028;-38
2023/03/21 03:36:26;;;;;;;22.10;9.90;;;9.80;99.90;;;;;;5093275;28;20034;-36
2023/03/21 03:38:53;;;;;;;19.25;10.15;;;9.80;99.90;;;;;;5095368;28;20069;-37
2023/03/21 03:41:27;;;;;;;21.70;9.23;;;9.80;99.90;;;;;;5102748;28;20027;-34
2023/03/21 03:43:56;;;;;;;17.42;9.00;;;9.80;99.90;;;;;;5093555;28;20046;-31
2023/03/21 03:46:33;;;;;;;22.30;9.10;;;9.80;99.90;;;;;;5093664;28;20040;-38
2023/03/21 03:49:15;;;;;;;14.80;9.00;;;9.80;99.90;;;;;;5109469;28;20038;-48
2023/03/21 03:51:57;;;;;;;20.35;9.18;;;9.80;99.90;;;;;;5093299;28;20099;-48
2023/03/21 03:54:31;;;;;;;28.98;9.80;;;9.80;99.90;;;;;;5094190;28;20153;-49
2023/03/21 03:56:57;;;;;;;20.80;8.82;;;9.80;99.90;;;;;;5093864;28;20036;-49
2023/03/21 03:59:24;;;;;;;18.58;7.90;;;9.70;99.90;;;;;;5092900;28;20484;-47
2023/03/21 04:01:50;;;;;;;18.52;8.60;;;9.70;99.90;;;;;;5112813;28;20031;-48
2023/03/21 04:04:15;;;;;;;14.45;8.13;;;9.70;99.90;;;;;;5114030;28;20495;-49
2023/03/21 04:06:50;;;;;;;20.88;7.63;;;9.80;99.90;;;;;;5114052;28;20019;-48
2023/03/21 04:09:17;;;;;;;18.33;8.15;;;9.80;99.90;;;;;;5112467;28;20057;-48
2023/03/21 04:11:43;;;;;;;24.00;9.93;;;9.70;99.90;;;;;;5112204;28;20080;-48
2023/03/21 04:14:09;;;;;;;19.20;7.85;;;9.70;99.90;;;;;;5111691;28;20441;-40
2023/03/21 04:16:35;;;;;;;19.05;8.25;;;9.70;99.90;;;;;;5101579;28;20119;-44
2023/03/21 04:19:01;;;;;;;21.15;8.23;;;9.70;99.90;;;;;;5104227;28;20028;-39
2023/03/21 04:21:27;;;;;;;20.95;8.90;;;9.70;99.90;;;;;;5100283;28;20024;-41
2023/03/21 04:23:53;;;;;;;13.65;8.50;;;9.70;99.90;;;;;;5095813;28;20024;-40
2023/03/21 04:26:21;;;;;;;23.15;9.13;;;9.80;99.90;;;;;;5093054;28;20081;-41
2023/03/21 04:28:47;;;;;;;24.50;9.43;;;9.80;99.90;;;;;;5102527;28;20023;-41
2023/03/21 04:31:13;;;;;;;27.20;10.60;;;9.80;99.90;;;;;;5097789;28;20155;-41
2023/03/21 04:33:39;;;;;;;26.45;10.38;;;9.80;99.90;;;;;;5106983;28;20034;-39
2023/03/21 04:36:08;;;;;;;26.80;10.40;;;9.80;99.90;;;;;;5097830;28;20484;-47
2023/03/21 04:38:35;;;;;;;27.00;11.95;;;9.70;99.90;;;;;;5106435;28;20031;-40
2023/03/21 04:41:02;;;;;;;22.65;9.50;;;9.80;99.90;;;;;;5102126;28;20031;-39
2023/03/21 04:43:27;;;;;;;34.72;12.00;;;9.70;99.90;;;;;;5094792;28;20024;-43
2023/03/21 04:45:54;;;;;;;27.13;11.45;;;9.70;99.90;;;;;;5108139;28;20507;-41
2023/03/21 04:48:23;;;;;;;23.65;11.95;;;9.70;99.90;;;;;;5102137;28;20036;-40
2023/03/21 04:50:49;;;;;;;26.63;12.77;;;9.80;99.90;;;;;;5112288;28;20020;-42
2023/03/21 04:53:15;;;;;;;24.35;11.50;;;9.80;99.90;;;;;;5107835;28;20038;-38
2023/03/21 04:55:41;;;;;;;26.25;11.95;;;9.80;99.90;;;;;;5106850;28;20034;-39
2023/03/21 04:58:06;;;;;;;25.52;11.40;;;9.80;99.90;;;;;;5109743;28;20119;-42
2023/03/21 05:00:36;;;;;;;27.92;11.05;;;9.80;99.90;;;;;;5111828;28;20099;-41
2023/03/21 05:03:07;;;;;;;25.55;11.95;;;9.80;99.90;;;;;;5098619;28;20046;-41
2023/03/21 05:05:36;;;;;;;26.80;10.82;;;9.70;99.90;;;;;;5111907;28;20028;-43
2023/03/21 05:08:04;;;;;;;28.58;12.13;;;9.70;99.90;;;;;;5111293;28;20019;-41
2023/03/21 05:10:29;;;;;;;22.88;10.60;;;9.70;99.90;;;;;;5113331;28;20086;-34
2023/03/21 05:12:55;;;;;;;24.55;11.40;;;9.70;99.90;;;;;;5106075;28;20074;-34
2023/03/21 05:15:20;;;;;;;24.40;10.93;;;9.70;99.90;;;;;;5106795;28;20081;-33
2023/03/21 05:17:47;;;;;;;27.63;12.10;;;9.70;99.90;;;;;;5103847;28;20032;-32
2023/03/21 05:20:14;;;;;;;36.35;10.95;;;9.70;99.90;;;;;;5092460;28;20024;-34
2023/03/21 05:22:40;;;;;;;33.42;10.98;;;9.70;99.90;;;;;;5103347;28;20015;-35
2023/03/21 05:25:08;;;;;;;29.15;11.10;;;9.70;99.90;;;;;;5107572;28;20438;-33
2023/03/21 05:27:34;;;;;;;18.38;7.20;;;9.70;99.90;;;;;;5110831;28;20077;-34
2023/03/21 05:30:05;;;;;;;26.20;11.05;;;9.80;99.90;;;;;;5107850;28;20098;-35
2023/03/21 05:32:31;;;;;;;24.13;9.80;;;9.70;99.90;;;;;;5103426;28;20062;-34
2023/03/21 05:34:57;;;;;;;21.50;9.65;;;9.80;99.90;;;;;;5096504;28;20056;-35
2023/03/21 05:37:23;;;;;;;24.38;10.15;;;9.70;99.90;;;;;;5110370;28;20020;-35
2023/03/21 05:39:49;;;;;;;24.90;10.13;;;9.80;99.90;;;;;;5104635;28;20027;-34
2023/03/21 05:42:17;;;;;;;27.67;9.38;;;9.70;99.90;;;;;;5105729;28;20024;-33
2023/03/21 05:44:43;;;;;;;23.27;9.88;;;9.80;99.90;;;;;;5096622;28;20039;-34
2023/03/21 05:47:09;;;;;;;18.52;8.68;;;9.80;99.90;;;;;;5098007;28;20032;-34
2023/03/21 05:49:35;;;;;;;22.92;10.30;;;9.80;99.90;;;;;;5110939;28;20034;-34
2023/03/21 05:52:00;;;;;;;17.05;9.15;;;9.70;99.90;;;;;;5108022;28;20076;-38
2023/03/21 05:54:26;;;;;;;21.58;8.95;;;9.80;99.90;;;;;;5096719;28;20023;-34
2023/03/21 05:56:52;;;;;;;19.58;9.50;;;9.70;99.90;;;;;;5095756;28;20427;-32
2023/03/21 05:59:17;;;;;;;25.90;9.00;;;9.70;99.90;;;;;;5096854;28;20396;-36
2023/03/21 06:01:43;;;;;;;20.40;7.80;;;9.70;99.90;;;;;;5108974;28;20224;-35
2023/03/21 06:04:08;;;;;;;24.63;8.60;;;9.80;99.90;;;;;;5096892;28;20031;-38
2023/03/21 06:06:34;;;;;;;20.17;8.32;;;9.80;99.90;;;;;;5116327;28;20032;-37
2023/03/21 06:09:00;;;;;;;19.88;8.75;;;9.80;99.90;;;;;;5116317;28;20058;-34
2023/03/21 06:11:29;;;;;;;24.30;9.77;;;9.80;99.90;;;;;;5115062;28;20080;-37
2023/03/21 06:13:55;;;;;;;18.58;9.10;;;9.90;99.90;;;;;;5104429;28;20399;-41
2023/03/21 06:16:20;;;;;;;20.88;8.30;;;9.90;99.90;;;;;;5115214;28;20031;-41
2023/03/21 06:18:46;;;;;;;25.48;8.38;;;9.90;99.90;;;;;;5095659;28;20024;-41
2023/03/21 06:21:12;;;;;;;21.60;8.70;;;9.80;99.90;;;;;;5096858;27;20032;-41
2023/03/21 06:23:38;;;;;;;21.75;8.57;;;9.80;99.90;;;;;;5095886;28;20028;-40
2023/03/21 06:26:04;;;;;;;24.40;8.80;;;9.80;99.90;;;;;;5095819;28;20031;-39
2023/03/21 06:28:30;;;;;;;25.85;8.68;;;9.90;99.90;;;;;;5095817;28;20046;-40
2023/03/21 06:30:56;;;;;;;26.40;9.23;;;9.90;99.90;;;;;;5102517;28;20024;-39
2023/03/21 06:33:21;;;;;;;22.08;7.82;;;9.90;99.90;;;;;;5115392;28;20598;-42
2023/03/21 06:35:52;;;;;;;23.90;8.20;;;9.90;99.90;;;;;;5097157;28;20063;-41
2023/03/21 06:38:18;;;;;;;25.98;9.43;;;9.90;99.90;;;;;;5101435;28;20031;-40
2023/03/21 06:40:45;;;;;;;25.95;8.05;;;9.90;99.90;;;;;;5112587;28;20049;-41
2023/03/21 06:43:11;;;;;;;20.73;8.13;;;9.90;99.90;;;;;;5097797;28;20058;-40
2023/03/21 06:45:37;;;;;;;20.88;7.78;;;9.90;99.90;;;;;;5107737;28;20055;-40
2023/03/21 06:48:03;;;;;;;22.70;8.10;;;9.90;99.90;;;;;;5108133;28;20051;-40
2023/03/21 06:50:29;;;;;;;19.38;7.70;;;9.90;99.90;;;;;;5102025;28;20075;-40
2023/03/21 06:52:56;;;;;;;25.23;7.38;;;9.90;99.90;;;;;;5106312;28;20066;-43
2023/03/21 06:55:25;;;;;;;25.33;8.93;;;9.90;99.90;;;;;;5094988;28;20024;-41
2023/03/21 06:57:52;;;;;;;16.48;7.53;;;10.00;99.90;;;;;;5105789;28;20024;-41
2023/03/21 07:00:18;;;;;;;19.25;8.52;;;10.00;99.90;;;;;;5095169;28;20472;-37
2023/03/21 07:02:45;;;;;;;14.18;7.60;;;9.90;99.90;;;;;;5102346;27;20069;-39
2023/03/21 07:05:11;;;;;;;15.65;7.30;;;10.00;99.90;;;;;;5098071;28;20024;-40
2023/03/21 07:07:37;;;;;;;26.83;8.50;;;10.00;99.90;;;;;;5103140;28;20375;-40
2023/03/21 07:10:03;;;;;;;17.27;6.80;;;10.00;99.90;;;;;;5096862;28;20098;-40
2023/03/21 07:12:32;;;;;;;20.88;7.32;;;10.00;99.90;;;;;;5095752;28;20448;-41
2023/03/21 07:14:59;;;;;;;16.42;7.13;;;10.00;99.90;;;;;;5094520;28;20020;-39
2023/03/21 07:17:25;;;;;;;19.75;6.82;;;10.00;99.90;;;;;;5094668;28;20467;-43
2023/03/21 07:19:51;;;;;;;15.02;5.82;;;10.00;99.90;;;;;;5111189;28;20034;-40
2023/03/21 07:22:17;;;;;;;14.50;6.75;;;10.00;99.90;;;;;;5101070;28;20472;-41
2023/03/21 07:24:43;;;;;;;14.93;7.07;;;10.00;99.90;;;;;;5098048;28;20468;-41
2023/03/21 07:27:09;;;;;;;22.00;7.30;;;10.00;99.90;;;;;;5114804;28;20019;-44
2023/03/21 07:29:34;;;;;;;16.27;7.05;;;10.10;99.90;;;;;;5105366;28;20028;-40
2023/03/21 07:32:00;;;;;;;14.57;6.30;;;10.10;99.90;;;;;;5106179;28;20060;-41
2023/03/21 07:34:30;;;;;;;20.17;6.25;;;10.00;99.90;;;;;;5104651;28;20472;-50
2023/03/21 07:36:56;;;;;;;20.40;7.70;;;10.00;99.90;;;;;;5100003;28;20444;-43
2023/03/21 07:39:22;;;;;;;21.33;6.93;;;10.00;99.90;;;;;;5104882;28;20016;-40
2023/03/21 07:41:48;;;;;;;23.15;7.18;;;10.00;99.90;;;;;;5092985;28;20028;-33
2023/03/21 07:44:14;;;;;;;30.30;7.85;;;10.00;99.90;;;;;;5105485;28;20034;-48
2023/03/21 07:46:40;;;;;;;17.70;6.53;;;10.00;99.90;;;;;;5097911;28;20040;-48
2023/03/21 07:49:07;;;;;;;20.70;7.15;;;10.00;99.90;;;;;;5111400;28;20531;-41
2023/03/21 07:51:34;;;;;;;18.83;8.15;;;10.10;99.90;;;;;;5112543;28;20035;-41
2023/03/21 07:54:00;;;;;;;14.07;5.13;;;10.10;99.90;;;;;;5094392;28;20464;-43
2023/03/21 07:56:27;;;;;;;18.77;7.05;;;10.10;99.90;;;;;;5093878;28;20066;-41
2023/03/21 07:58:53;;;;;;;17.42;7.13;;;10.10;99.90;;;;;;5099183;28;20028;-39
2023/03/21 08:01:18;;;;;;;16.02;6.45;;;10.10;99.90;;;;;;5103938;28;20035;-43
2023/03/21 08:03:44;;;;;;;17.77;7.28;;;10.10;99.90;;;;;;5101188;28;20805;-41
2023/03/21 08:06:10;;;;;;;15.45;7.82;;;10.10;99.90;;;;;;5113972;28;20476;-42
2023/03/21 08:08:36;;;;;;;12.95;6.57;;;10.20;99.90;;;;;;5106576;28;20030;-42
2023/03/21 08:11:03;;;;;;;16.58;6.18;;;10.20;99.90;;;;;;5093031;28;20039;-41
2023/03/21 08:13:29;;;;;;;24.73;6.63;;;10.20;99.90;;;;;;5104033;28;20023;-42
2023/03/21 08:15:54;;;;;;;17.63;6.18;;;10.30;99.90;;;;;;5101650;28;20032;-41
2023/03/21 08:18:20;;;;;;;14.18;5.93;;;10.30;99.90;;;;;;5104864;28;20114;-37
2023/03/21 08:20:54;;;;;;;17.70;6.88;;;10.30;99.90;;;;;;5094649;28;20488;-31
2023/03/21 08:23:20;;;;;;;18.40;6.57;;;10.30;99.90;;;;;;5106491;28;20070;-32
2023/03/21 08:25:50;;;;;;;18.75;6.32;;;10.30;99.90;;;;;;5098675;28;20012;-36
2023/03/21 08:28:16;;;;;;;21.73;6.72;;;10.30;99.90;;;;;;5098617;28;20057;-36
2023/03/21 08:30:42;;;;;;;16.27;6.38;;;10.30;99.90;;;;;;5102478;28;20020;-32
2023/03/21 08:33:07;;;;;;;17.08;6.55;;;10.30;99.90;;;;;;5088815;28;20458;-33
2023/03/21 08:35:33;;;;;;;16.38;6.93;;;10.30;99.90;;;;;;5096335;28;20532;-32
2023/03/21 08:38:02;;;;;;;14.80;6.15;;;10.40;99.90;;;;;;5098786;28;20028;-33
2023/03/21 08:40:28;;;;;;;15.13;6.82;;;10.40;99.90;;;;;;5094240;28;20020;-36
2023/03/21 08:42:54;;;;;;;17.95;6.07;;;10.40;99.90;;;;;;5110557;28;20023;-32
2023/03/21 08:45:19;;;;;;;16.60;5.85;;;10.40;99.90;;;;;;5112846;28;20016;-33
2023/03/21 08:47:45;;;;;;;18.80;6.05;;;10.50;99.90;;;;;;5113271;28;20054;-35
2023/03/21 08:50:15;;;;;;;15.38;5.57;;;10.50;99.90;;;;;;5107313;28;20376;-34
2023/03/21 08:52:40;;;;;;;17.70;5.47;;;10.50;99.90;;;;;;5102458;28;20464;-34
2023/03/21 08:55:06;;;;;;;15.80;5.32;;;10.50;99.90;;;;;;5112409;28;20022;-34
2023/03/21 08:57:32;;;;;;;11.55;5.38;;;10.50;99.90;;;;;;5111488;28;20027;-36
2023/03/21 08:59:58;;;;;;;14.38;4.72;;;10.60;99.90;;;;;;5098799;28;20024;-37
2023/03/21 09:02:23;;;;;;;18.02;5.63;;;10.60;99.90;;;;;;5092312;28;20032;-36
2023/03/21 09:04:51;;;;;;;9.10;4.75;;;10.60;99.90;;;;;;5092755;28;20099;-42
2023/03/21 09:07:17;;;;;;;;;;;10.70;99.90;;;;;;5093569;28;20388;-40
2023/03/21 09:09:42;;;;;;;15.25;6.07;;;10.80;99.90;;;;;;5106085;28;19904;-41
2023/03/21 09:12:12;;;;;;;9.60;5.00;;;10.80;99.90;;;;;;5098144;28;20396;-40
2023/03/21 09:14:37;;;;;;;15.07;4.97;;;10.70;99.90;;;;;;5102039;28;20020;-40
2023/03/21 09:17:03;;;;;;;9.73;5.82;;;10.80;99.90;;;;;;5099369;28;20392;-41
2023/03/21 09:19:30;;;;;;;12.65;5.10;;;10.80;99.90;;;;;;5097325;28;20069;-41
2023/03/21 09:21:56;;;;;;;8.43;4.00;;;10.90;99.90;;;;;;5104355;28;20070;-38
2023/03/21 09:24:22;;;;;;;13.07;5.55;;;10.90;99.90;;;;;;5101484;28;20323;-40
2023/03/21 09:26:49;;;;;;;12.45;5.25;;;10.90;99.90;;;;;;5104644;28;20468;-38
2023/03/21 09:29:16;;;;;;;11.73;5.57;;;11.00;99.90;;;;;;5100932;28;20028;-39
2023/03/21 09:31:42;;;;;;;7.63;4.45;;;11.10;99.90;;;;;;5093581;28;20377;-40
2023/03/21 09:34:08;;;;;;;11.65;4.82;;;11.30;99.90;;;;;;5101090;28;20051;-40
2023/03/21 09:36:34;;;;;;;11.48;5.03;;;11.50;99.90;;;;;;5109339;28;20080;-41
2023/03/21 09:39:02;;;;;;;8.85;5.43;;;11.50;99.90;;;;;;5104800;28;20024;-42
2023/03/21 09:41:42;;;;;;;13.77;4.82;;;11.70;99.90;;;;;;5106926;28;20543;-34
2023/03/21 09:44:40;;;;;;;14.30;5.47;;;11.70;99.90;;;;;;5099594;28;20027;-40
2023/03/21 09:47:21;;;;;;;11.75;5.32;;;11.80;99.90;;;;;;5096062;28;20053;-40
2023/03/21 09:50:02;;;;;;;18.10;6.13;;;11.80;99.90;;;;;;5098813;28;20381;-41
2023/03/21 09:52:52;;;;;;;13.93;4.68;;;11.80;99.90;;;;;;5097811;28;20042;-40
2023/03/21 09:55:22;;;;;;;9.00;4.63;;;11.80;99.90;;;;;;5096118;28;20076;-41
2023/03/21 09:58:13;;;;;;;22.33;6.18;;;11.90;99.90;;;;;;5104196;28;20043;-40
2023/03/21 10:00:44;;;;;;;12.82;5.55;;;11.90;99.90;;;;;;5083815;28;20488;-40
2023/03/21 10:03:23;;;;;;;11.50;5.53;;;11.90;99.90;;;;;;5093630;28;20017;-32
2023/03/21 10:05:51;;;;;;;15.02;5.30;;;12.00;99.90;;;;;;5095669;28;20016;-35
2023/03/21 10:08:36;;;;;;;18.88;5.15;;;12.10;99.90;;;;;;5099199;28;20023;-36
2023/03/21 10:11:23;;;;;;;9.38;5.60;;;12.20;99.90;;;;;;5104221;28;20030;-39
2023/03/21 10:14:03;;;;;;;15.48;5.18;;;12.30;99.90;;;;;;5097345;28;20039;-34
2023/03/21 10:16:40;;;;;;;16.17;5.65;;;12.40;99.90;;;;;;5094385;28;20040;-35
2023/03/21 10:19:11;;;;;;;15.38;5.68;;;12.40;99.90;;;;;;5101517;28;20023;-30
2023/03/21 10:21:42;;;;;;;12.60;5.47;;;12.40;99.90;;;;;;5114623;28;20111;-37
2023/03/21 10:24:11;;;;;;;15.65;5.25;;;12.40;99.90;;;;;;5099761;28;20020;-36
2023/03/21 10:26:36;;;;;;;12.13;5.38;;;12.40;99.90;;;;;;5105795;28;20387;-38
2023/03/21 10:29:02;;;;;;;8.82;4.93;;;12.40;99.90;;;;;;5107144;28;20111;-42
2023/03/21 10:31:29;;;;;;;11.00;5.72;;;12.30;99.90;;;;;;5110267;28;20038;-37
2023/03/21 10:33:58;;;;;;;11.75;5.70;;;12.40;99.90;;;;;;5102169;28;20474;-41
2023/03/21 10:36:30;;;;;;;13.18;5.40;;;12.50;99.90;;;;;;5099044;28;20019;-35
2023/03/21 10:39:01;;;;;;;12.25;4.88;;;12.50;99.90;;;;;;5101629;28;20382;-38
2023/03/21 10:41:27;;;;;;;13.00;4.97;;;12.60;99.90;;;;;;5094980;28;20028;-40
2023/03/21 10:44:16;;;;;;;12.52;4.93;;;12.60;99.90;;;;;;5103906;28;20506;-41
2023/03/21 10:46:54;;;;;;;13.93;5.78;;;12.60;99.90;;;;;;5109350;28;20496;-37
2023/03/21 10:49:20;;;;;;;3.78;3.20;;;12.50;99.90;;;;;;5112272;28;20034;-36
2023/03/21 10:51:49;;;;;;;11.93;4.80;;;12.50;99.90;;;;;;5101852;28;20032;-39
2023/03/21 10:54:18;;;;;;;16.13;5.60;;;12.60;99.90;;;;;;5095381;28;20079;-39
2023/03/21 10:56:57;;;;;;;10.98;4.82;;;12.70;99.90;;;;;;5095758;28;20479;-37
2023/03/21 10:59:25;;;;;;;8.05;4.75;;;12.70;99.90;;;;;;5096375;28;20498;-39
2023/03/21 11:01:54;;;;;;;23.70;5.03;;;12.80;99.90;;;;;;5110275;28;20028;-39
2023/03/21 11:04:23;;;;;;;15.30;4.68;;;12.80;99.90;;;;;;5112224;28;20016;-34
2023/03/21 11:06:55;;;;;;;9.73;4.78;;;12.80;99.90;;;;;;5107132;27;20020;-39
2023/03/21 11:09:23;;;;;;;11.52;4.50;;;12.90;99.90;;;;;;5102212;28;20502;-39
2023/03/21 11:11:54;;;;;;;21.63;5.50;;;13.00;99.90;;;;;;5103679;28;20496;-45
2023/03/21 11:14:34;;;;;;;14.43;5.18;;;13.00;99.90;;;;;;5105779;28;20027;-43
2023/03/21 11:17:00;;;;;;;8.77;4.30;;;13.10;99.90;;;;;;5094999;28;20415;-43
2023/03/21 11:19:31;;;;;;;17.13;4.90;;;13.10;99.90;;;;;;5094544;28;20042;-46
2023/03/21 11:21:58;;;;;;;11.57;4.38;;;13.20;99.90;;;;;;5094690;28;20027;-47
2023/03/21 11:24:29;;;;;;;10.27;5.55;;;13.20;99.90;;;;;;5114810;28;20094;-43
2023/03/21 11:26:55;;;;;;;7.45;4.18;;;13.10;99.90;;;;;;5109493;28;20035;-43
2023/03/21 11:29:28;;;;;;;11.32;4.72;;;13.20;99.90;;;;;;5104857;28;20040;-45
2023/03/21 11:31:58;;;;;;;11.68;5.10;;;13.20;99.90;;;;;;5094579;28;20469;-45
2023/03/21 11:34:52;;;;;;;10.27;4.68;;;13.30;99.90;;;;;;5107947;28;20537;-46
2023/03/21 11:37:31;;;;;;;15.10;6.25;;;13.50;99.90;;;;;;5107860;28;20059;-44
2023/03/21 11:40:07;;;;;;;8.88;4.75;;;13.70;99.90;;;;;;5094058;28;20122;-42
2023/03/21 11:42:43;;;;;;;12.30;4.55;;;13.70;99.90;;;;;;5101838;28;20036;-42
2023/03/21 11:45:16;;;;;;;15.50;5.38;;;13.80;99.90;;;;;;5112544;28;20015;-52
2023/03/21 11:47:43;;;;;;;10.10;4.82;;;14.00;99.90;;;;;;5112815;28;20052;-42
2023/03/21 11:50:35;;;;;;;11.32;4.85;;;14.10;99.90;;;;;;5107999;27;20089;-45
2023/03/21 11:53:51;;;;;;;23.65;5.03;;;14.10;99.90;;;;;;5093062;27;20032;-42
2023/03/21 11:56:52;;;;;;;16.27;5.35;;;13.90;99.90;;;;;;5062753;28;20040;-41
2023/03/21 11:59:26;;;;;;;12.88;5.00;;;13.90;99.90;;;;;;5093477;28;20492;-42
2023/03/21 12:02:15;;;;;;;13.65;5.15;;;13.90;99.90;;;;;;5094059;28;20032;-42
2023/03/21 12:04:53;;;;;;;12.25;5.63;;;13.90;99.90;;;;;;5093906;28;20032;-45
2023/03/21 12:07:41;;;;;;;19.08;6.25;;;13.80;99.90;;;;;;5110072;28;20028;-42
2023/03/21 12:10:27;;;;;;;8.00;4.95;;;13.80;99.90;;;;;;5113919;28;20107;-44
2023/03/21 12:13:04;;;;;;;9.27;4.68;;;13.70;99.90;;;;;;5104261;28;20521;-43
2023/03/21 12:15:42;;;;;;;7.97;4.15;;;13.70;99.90;;;;;;5093803;28;20024;-46
2023/03/21 12:18:32;;;;;;;9.40;5.43;;;13.80;99.90;;;;;;5107925;28;20023;-44
2023/03/21 12:20:59;;;;;;;13.90;5.57;;;13.90;99.90;;;;;;5112575;28;20063;-43
2023/03/21 12:23:41;;;;;;;11.27;4.95;;;14.10;99.90;;;;;;5097154;28;20093;-44
2023/03/21 12:26:30;;;;;;;10.20;5.40;;;14.10;99.90;;;;;;5096565;28;20031;-48
2023/03/21 12:29:29;;;;;;;10.23;4.40;;;14.20;99.90;;;;;;5094389;28;20499;-44
2023/03/21 12:32:45;;;;;;;10.45;4.35;;;14.40;99.90;;;;;;5093270;28;20039;-43
2023/03/21 12:35:31;;;;;;;10.15;5.05;;;14.70;99.90;;;;;;5102444;28;20074;-49
2023/03/21 12:38:16;;;;;;;15.65;5.32;;;14.70;99.90;;;;;;5110525;28;20043;-40
2023/03/21 12:41:03;;;;;;;10.13;4.63;;;14.70;99.90;;;;;;5113400;28;20032;-38
2023/03/21 12:44:17;;;;;;;18.43;5.23;;;14.70;99.90;;;;;;5113767;28;20084;-34
2023/03/21 12:47:01;;;;;;;8.20;4.10;;;14.70;99.90;;;;;;5089552;28;20036;-46
2023/03/21 12:49:36;;;;;;;9.77;3.92;;;14.80;99.90;;;;;;5099530;28;20114;-43
2023/03/21 12:52:14;;;;;;;6.15;4.28;;;14.80;99.90;;;;;;5107833;28;20042;-43
2023/03/21 12:54:59;;;;;;;8.18;4.03;;;14.80;99.90;;;;;;5093259;28;20086;-43
2023/03/21 12:57:36;;;;;;;13.43;4.93;;;14.80;99.90;;;;;;5097156;28;20028;-44